Time;durP1;ratioP1;P1;durP2;ratioP2;P2;SDS_P1;SDS_P2;PMS_P1;PMS_P2;Temp;Humidity;BMP_temperature;BMP_pressure;BME280_temperature;BME280_humidity;BME280_pressure;Samples;Min_cycle;Max_cycle;Signal;HPM_P1;HPM_P2
2022/06/10 00:00:45;;;;;;;36.40;32.50;;;;;;;16.24;100.00;98745.19;105218;1271;74207;-76
2022/06/10 00:03:14;;;;;;;39.60;35.60;;;;;;;16.22;100.00;98750.90;105141;1271;60574;-76
2022/06/10 00:05:44;;;;;;;39.10;35.30;;;;;;;16.21;100.00;98757.69;105182;1271;60714;-75
2022/06/10 00:08:14;;;;;;;36.80;32.90;;;;;;;16.20;100.00;98757.83;105161;1270;74615;-77
2022/06/10 00:10:41;;;;;;;37.40;33.40;;;;;;;16.19;100.00;98760.77;105180;1271;68634;-74
2022/06/10 00:13:08;;;;;;;38.00;33.90;;;;;;;16.18;100.00;98759.59;105159;1271;73153;-75
2022/06/10 00:15:35;;;;;;;38.30;32.60;;;;;;;16.16;100.00;98759.23;105125;1270;61698;-74
2022/06/10 00:18:01;;;;;;;36.90;33.00;;;;;;;16.14;100.00;98764.44;105164;1271;60480;-74
2022/06/10 00:20:30;;;;;;;35.70;31.80;;;;;;;16.11;100.00;98761.27;105138;1271;60507;-74
2022/06/10 00:22:57;;;;;;;35.80;31.90;;;;;;;16.08;100.00;98765.16;105233;1271;69375;-75
2022/06/10 00:25:24;;;;;;;34.90;31.20;;;;;;;16.06;100.00;98760.77;105191;1270;74019;-74
2022/06/10 00:27:51;;;;;;;37.00;32.60;;;;;;;16.03;100.00;98768.30;105159;1271;60495;-75
2022/06/10 00:30:21;;;;;;;40.90;35.60;;;;;;;16.00;100.00;98771.99;105183;1271;60412;-75
2022/06/10 00:32:48;;;;;;;41.10;36.60;;;;;;;15.97;100.00;98777.45;105155;1271;74391;-75
2022/06/10 00:35:15;;;;;;;40.50;36.10;;;;;;;15.96;100.00;98778.30;105135;1271;69118;-75
2022/06/10 00:37:42;;;;;;;38.90;34.60;;;;;;;15.96;100.00;98779.23;105198;1271;73877;-74
2022/06/10 00:40:16;;;;;;;44.60;38.10;;;;;;;15.95;100.00;98776.43;105147;1271;60562;-76
2022/06/10 00:42:42;;;;;;;44.90;37.80;;;;;;;15.95;100.00;98779.28;105320;1270;60495;-75
2022/06/10 00:45:47;;;;;;;41.40;37.00;;;;;;;15.95;100.00;98780.34;104965;1271;73386;-75
2022/06/10 00:48:19;;;;;;;41.80;37.30;;;;;;;15.96;100.00;98784.92;105179;1270;69129;-74
2022/06/10 00:50:48;;;;;;;41.70;36.90;;;;;;;15.95;100.00;98787.88;105135;1271;71549;-73
2022/06/10 00:53:20;;;;;;;47.20;41.40;;;;;;;15.95;100.00;98787.88;105194;1271;60507;-74
2022/06/10 00:55:53;;;;;;;47.50;41.00;;;;;;;15.96;100.00;98786.00;104980;1271;61454;-75
2022/06/10 00:58:45;;;;;;;44.20;39.40;;;;;;;15.97;100.00;98785.58;105140;1270;74248;-76
2022/06/10 01:01:14;;;;;;;45.90;40.90;;;;;;;15.98;100.00;98785.98;104500;1277;70224;-73
2022/06/10 01:03:41;;;;;;;48.20;41.50;;;;;;;15.98;100.00;98788.69;104511;1277;74738;-73
2022/06/10 01:06:09;;;;;;;44.50;39.70;;;;;;;15.99;100.00;98790.92;104455;1277;60927;-73
2022/06/10 01:08:37;;;;;;;45.60;40.60;;;;;;;15.99;100.00;98797.55;104469;1277;61272;-74
2022/06/10 01:11:29;;;;;;;49.60;44.20;;;;;;;16.01;100.00;98797.93;104037;1277;74259;-74
2022/06/10 01:14:34;;;;;;;45.10;40.20;;;;;;;16.04;100.00;98800.36;104466;1276;69274;-74
2022/06/10 01:17:09;;;;;;;44.10;39.20;;;;;;;16.05;100.00;98800.42;103763;1285;73854;-74
2022/06/10 01:19:39;;;;;;;42.80;38.30;;;;;;;16.05;100.00;98802.40;103794;1287;60572;-74
2022/06/10 01:22:08;;;;;;;41.90;37.50;;;;;;;16.04;100.00;98803.71;103779;1287;60609;-74
2022/06/10 01:25:01;;;;;;;40.10;35.80;;;;;;;16.05;100.00;98802.98;103791;1288;75729;-74
2022/06/10 01:27:49;;;;;;;42.60;38.30;;;;;;;16.06;100.00;98802.29;103791;1287;67368;-74
2022/06/10 01:30:53;;;;;;;43.70;38.80;;;;;;;16.06;100.00;98801.91;103762;1287;73723;-74
2022/06/10 01:33:43;;;;;;;43.00;38.10;;;;;;;16.06;100.00;98804.05;103774;1287;60654;-74
2022/06/10 01:36:34;;;;;;;43.20;38.20;;;;;;;16.07;100.00;98807.38;103752;1287;61902;-73
2022/06/10 01:39:07;;;;;;;43.40;38.70;;;;;;;16.08;100.00;98803.86;104217;1277;75616;-74
2022/06/10 01:41:45;;;;;;;44.00;39.20;;;;;;;16.09;100.00;98804.38;104422;1278;70812;-74
2022/06/10 01:44:27;;;;;;;42.70;38.20;;;;;;;16.09;100.00;98806.13;104448;1277;73485;-74
2022/06/10 01:47:19;;;;;;;41.40;36.90;;;;;;;16.10;100.00;98805.68;104424;1278;60520;-74
2022/06/10 01:50:11;;;;;;;42.60;36.00;;;;;;;16.11;100.00;98807.57;104454;1279;60474;-74
2022/06/10 01:52:43;;;;;;;42.80;37.30;;;;;;;16.12;100.00;98810.89;104836;1274;75449;-74
2022/06/10 01:55:24;;;;;;;41.40;37.00;;;;;;;16.12;100.00;98817.82;105195;1271;69267;-74
2022/06/10 01:57:59;;;;;;;39.30;35.10;;;;;;;16.14;100.00;98824.11;105187;1271;73272;-74
2022/06/10 02:00:37;;;;;;;39.20;35.10;;;;;;;16.15;100.00;98827.30;105098;1271;60571;-73
2022/06/10 02:03:11;;;;;;;40.50;36.10;;;;;;;16.13;100.00;98827.75;105160;1271;60972;-75
2022/06/10 02:05:48;;;;;;;39.40;34.90;;;;;;;16.12;100.00;98828.77;105153;1271;73850;-74
2022/06/10 02:08:21;;;;;;;40.60;35.10;;;;;;;16.11;100.00;98831.09;105165;1271;69268;-74
2022/06/10 02:10:59;;;;;;;39.30;35.10;;;;;;;16.08;100.00;98827.86;105088;1271;74125;-74
2022/06/10 02:13:30;;;;;;;37.50;33.40;;;;;;;16.09;100.00;98830.55;105188;1271;60610;-74
2022/06/10 02:16:01;;;;;;;42.10;34.70;;;;;;;16.07;100.00;98835.92;105188;1271;60977;-74
2022/06/10 02:18:34;;;;;;;40.50;34.60;;;;;;;16.04;100.00;98839.95;105131;1270;74659;-74
2022/06/10 02:21:16;;;;;;;38.40;33.40;;;;;;;16.02;100.00;98850.30;104922;1271;67840;-74
2022/06/10 02:23:48;;;;;;;37.80;33.00;;;;;;;16.01;100.00;98856.98;105131;1270;73411;-74
2022/06/10 02:26:17;;;;;;;38.00;33.80;;;;;;;16.00;100.00;98863.93;104892;1271;61224;-75
2022/06/10 02:28:53;;;;;;;36.60;32.70;;;;;;;16.01;100.00;98869.95;105278;1270;60475;-74
2022/06/10 02:31:33;;;;;;;37.00;33.00;;;;;;;16.03;100.00;98872.80;105182;1271;75670;-74
2022/06/10 02:34:01;;;;;;;37.20;33.20;;;;;;;16.04;100.00;98870.91;105157;1271;69590;-75
2022/06/10 02:36:42;;;;;;;38.30;33.80;;;;;;;16.04;100.00;98874.34;105213;1269;73136;-74
2022/06/10 02:39:24;;;;;;;36.10;32.00;;;;;;;16.03;100.00;98871.05;105144;1271;61578;-75
2022/06/10 02:42:11;;;;;;;37.30;33.10;;;;;;;16.01;100.00;98870.42;105145;1271;60583;-75
2022/06/10 02:45:00;;;;;;;40.30;34.60;;;;;;;16.01;100.00;98872.07;105120;1271;74603;-74
2022/06/10 02:47:45;;;;;;;39.60;34.10;;;;;;;16.01;100.00;98873.00;105171;1271;69142;-74
2022/06/10 02:50:14;;;;;;;41.70;35.70;;;;;;;16.01;100.00;98874.63;105118;1271;73190;-75
2022/06/10 02:52:42;;;;;;;39.60;34.30;;;;;;;16.02;100.00;98877.55;105113;1271;61144;-73
2022/06/10 02:55:16;;;;;;;41.20;35.90;;;;;;;16.02;100.00;98880.20;105212;1271;61231;-74
2022/06/10 03:03:38;;;;;;;37.40;31.70;;;;;;;16.08;100.00;98887.97;105049;1271;73314;-74
2022/06/10 03:06:19;;;;;;;40.00;34.10;;;;;;;16.08;100.00;98893.99;104804;1271;466143;-75
2022/06/10 03:09:00;;;;;;;39.70;33.70;;;;;;;16.09;100.00;98894.12;105151;1271;60855;-75
2022/06/10 03:12:09;;;;;;;41.60;34.80;;;;;;;16.11;100.00;98895.23;105091;1271;74808;-74
2022/06/10 03:15:17;;;;;;;39.10;33.30;;;;;;;16.14;100.00;98898.73;104587;1277;68452;-75
2022/06/10 03:17:49;;;;;;;41.80;34.70;;;;;;;16.17;100.00;98905.73;103916;1284;74438;-74
2022/06/10 03:20:25;;;;;;;40.00;34.90;;;;;;;16.21;100.00;98905.25;103890;1284;60617;-74
2022/06/10 03:23:24;;;;;;;40.20;34.10;;;;;;;16.22;100.00;98906.86;103887;1284;60553;-74
2022/06/10 03:26:00;;;;;;;40.70;35.20;;;;;;;16.27;100.00;98907.51;103928;1284;74437;-74
2022/06/10 03:28:44;;;;;;;40.20;32.70;;;;;;;16.30;100.00;98908.88;103882;1285;70609;-74
2022/06/10 03:31:17;;;;;;;42.50;34.40;;;;;;;16.32;100.00;98911.73;103947;1284;74190;-74
2022/06/10 03:33:59;;;;;;;44.80;37.80;;;;;;;16.35;100.00;98916.30;103871;1284;61368;-75
2022/06/10 03:36:27;;;;;;;41.80;36.20;;;;;;;16.37;100.00;98920.45;103955;1284;60822;-75
2022/06/10 03:38:54;;;;;;;41.00;34.30;;;;;;;16.38;100.00;98920.52;103842;1285;74354;-75
2022/06/10 03:41:26;;;;;;;42.70;35.60;;;;;;;16.40;100.00;98924.27;103844;1284;70534;-74
2022/06/10 03:43:55;;;;;;;41.80;35.80;;;;;;;16.42;100.00;98931.45;103909;1284;73965;-74
2022/06/10 03:46:26;;;;;;;42.40;36.00;;;;;;;16.44;100.00;98936.42;103978;1284;60567;-74
2022/06/10 03:48:54;;;;;;;38.70;33.70;;;;;;;16.47;100.00;98940.30;103897;1284;61711;-74
2022/06/10 03:51:22;;;;;;;37.00;32.70;;;;;;;16.50;100.00;98943.27;104125;1278;73477;-74
2022/06/10 03:53:49;;;;;;;34.90;30.80;;;;;;;16.52;100.00;98944.87;104688;1274;69053;-76
2022/06/10 03:56:23;;;;;;;34.80;31.20;;;;;;;16.55;100.00;98948.40;105144;1271;73147;-73
2022/06/10 03:58:50;;;;;;;35.40;31.50;;;;;;;16.58;100.00;98949.20;105166;1271;60513;-74
2022/06/10 04:01:17;;;;;;;35.70;31.90;;;;;;;16.63;100.00;98952.82;104918;1271;60547;-75
2022/06/10 04:03:44;;;;;;;37.70;33.30;;;;;;;16.69;100.00;98957.80;105153;1271;74251;-74
2022/06/10 04:06:11;;;;;;;36.50;32.50;;;;;;;16.72;100.00;98957.34;104894;1271;70029;-73
2022/06/10 04:08:38;;;;;;;35.40;31.60;;;;;;;16.76;100.00;98958.95;105245;1271;73698;-74
2022/06/10 04:11:04;;;;;;;35.00;31.50;;;;;;;16.78;100.00;98958.76;105124;1271;60635;-74
2022/06/10 04:13:31;;;;;;;36.60;32.70;;;;;;;16.80;100.00;98960.22;105127;1271;60472;-74
2022/06/10 04:15:57;;;;;;;35.40;31.80;;;;;;;16.81;100.00;98963.01;105161;1271;74541;-73
2022/06/10 04:18:25;;;;;;;35.20;31.50;;;;;;;16.82;100.00;98962.40;105154;1271;60524;-75
2022/06/10 04:20:51;;;;;;;34.60;30.70;;;;;;;16.82;100.00;98969.00;105144;1271;73535;-74
2022/06/10 04:23:36;;;;;;;34.40;30.80;;;;;;;16.84;100.00;98972.58;105008;1271;60644;-75
2022/06/10 04:26:03;;;;;;;34.20;30.50;;;;;;;16.88;100.00;98970.98;105162;1271;61002;-75
2022/06/10 04:28:30;;;;;;;36.60;32.90;;;;;;;16.92;100.00;98975.27;105131;1271;60479;-74
2022/06/10 04:30:56;;;;;;;36.30;32.40;;;;;;;16.96;100.00;98975.23;105155;1271;70428;-74
2022/06/10 04:33:24;;;;;;;34.30;30.90;;;;;;;16.98;100.00;98979.59;104903;1270;73319;-74
2022/06/10 04:35:51;;;;;;;36.60;31.80;;;;;;;17.01;100.00;98982.54;105136;1271;60579;-75
2022/06/10 04:38:23;;;;;;;34.10;30.50;;;;;;;17.06;100.00;98984.14;105151;1268;60995;-76
2022/06/10 04:40:50;;;;;;;34.40;30.80;;;;;;;17.11;100.00;98985.70;105149;1271;74457;-74
2022/06/10 04:43:18;;;;;;;35.00;31.30;;;;;;;17.15;100.00;98989.33;105156;1271;70208;-75
2022/06/10 04:45:49;;;;;;;38.00;32.60;;;;;;;17.17;100.00;98990.73;105149;1270;73251;-75
2022/06/10 04:48:16;;;;;;;35.70;31.30;;;;;;;17.19;100.00;98995.38;105129;1270;60773;-74
2022/06/10 04:50:45;;;;;;;36.60;32.60;;;;;;;17.21;100.00;98994.63;105161;1271;62218;-76
2022/06/10 04:53:11;;;;;;;37.30;33.30;;;;;;;17.23;100.00;98999.47;105263;1271;75897;-75
2022/06/10 04:55:39;;;;;;;37.60;33.40;;;;;;;17.26;100.00;99000.63;105162;1271;70207;-74
2022/06/10 04:58:06;;;;;;;38.20;32.80;;;;;;;17.27;100.00;99001.93;105111;1271;74690;-74
2022/06/10 05:00:37;;;;;;;37.00;33.00;;;;;;;17.32;100.00;99004.70;105154;1271;60410;-74
2022/06/10 05:03:05;;;;;;;36.50;32.40;;;;;;;17.37;100.00;99004.13;105142;1271;62073;-74
2022/06/10 05:05:33;;;;;;;36.40;31.80;;;;;;;17.38;100.00;99004.15;105093;1271;74420;-75
2022/06/10 05:08:00;;;;;;;34.30;30.60;;;;;;;17.38;100.00;99005.20;105000;1272;67530;-75
2022/06/10 05:10:28;;;;;;;37.30;33.40;;;;;;;17.42;100.00;99009.18;104926;1270;72558;-75
2022/06/10 05:12:54;;;;;;;35.10;31.50;;;;;;;17.43;100.00;99011.42;105158;1271;61241;-74
2022/06/10 05:15:21;;;;;;;35.00;31.20;;;;;;;17.45;100.00;99012.29;105195;1271;60809;-78
2022/06/10 05:17:50;;;;;;;34.40;30.60;;;;;;;17.47;100.00;99018.42;104871;1271;73881;-79
2022/06/10 05:20:22;;;;;;;36.50;32.70;;;;;;;17.50;100.00;99021.69;105020;1272;68796;-81
2022/06/10 05:22:49;;;;;;;36.70;31.30;;;;;;;17.52;100.00;99023.79;105153;1270;72667;-81
2022/06/10 05:25:16;;;;;;;38.50;33.80;;;;;;;17.53;100.00;99025.36;105203;1271;60504;-79
2022/06/10 05:27:44;;;;;;;35.70;31.40;;;;;;;17.51;100.00;99031.86;104988;1271;60931;-80
2022/06/10 05:30:17;;;;;;;36.10;32.30;;;;;;;17.53;100.00;99035.25;105211;1270;73871;-79
2022/06/10 05:32:44;;;;;;;34.10;30.70;;;;;;;17.60;100.00;99042.15;105279;1271;68805;-79
2022/06/10 05:35:10;;;;;;;40.80;31.90;;;;;;;17.65;100.00;99046.17;105210;1270;73151;-78
2022/06/10 05:37:37;;;;;;;37.90;33.90;;;;;;;17.72;100.00;99053.15;104883;1272;61211;-77
2022/06/10 05:40:05;;;;;;;34.00;30.60;;;;;;;17.76;100.00;99057.99;105121;1271;60587;-78
2022/06/10 05:42:31;;;;;;;37.80;33.70;;;;;;;17.82;100.00;99063.09;105186;1271;74677;-79
2022/06/10 05:44:58;;;;;;;35.20;31.60;;;;;;;17.89;100.00;99063.28;104977;1271;69140;-80
2022/06/10 05:47:30;;;;;;;37.20;33.20;;;;;;;17.94;100.00;99063.88;105179;1271;74356;-79
2022/06/10 05:50:00;;;;;;;39.20;33.70;;;;;;;18.01;100.00;99070.77;105175;1270;60578;-81
2022/06/10 05:52:28;;;;;;;;;;;;;;;18.02;100.00;99076.41;105237;1271;61600;-80
2022/06/10 05:54:57;;;;;;;35.00;31.50;;;;;;;17.98;100.00;99080.39;105151;1271;74469;-79
2022/06/10 05:57:24;;;;;;;34.40;30.80;;;;;;;17.96;100.00;99077.66;105234;1271;69812;-79
2022/06/10 05:59:52;;;;;;;34.40;30.80;;;;;;;17.94;100.00;99082.73;104922;1271;73674;-78
2022/06/10 06:02:23;;;;;;;35.30;31.40;;;;;;;17.88;100.00;99083.70;104871;1271;60515;-81
2022/06/10 06:04:50;;;;;;;35.10;30.70;;;;;;;17.80;100.00;99089.64;105223;1270;60365;-81
2022/06/10 06:07:20;;;;;;;32.90;29.40;;;;;;;17.76;100.00;99090.91;104989;1271;71691;-80
2022/06/10 06:09:48;;;;;;;35.60;29.00;;;;;;;17.71;100.00;99089.73;105187;1271;69201;-77
2022/06/10 06:12:15;;;;;;;30.60;27.00;;;;;;;17.66;100.00;99089.92;105220;1270;72893;-78
2022/06/10 06:14:42;;;;;;;37.40;29.70;;;;;;;17.61;100.00;99091.05;104892;1271;60473;-78
2022/06/10 06:17:10;;;;;;;33.60;29.30;;;;;;;17.59;100.00;99093.48;105185;1271;60800;-79
2022/06/10 06:19:37;;;;;;;31.80;28.30;;;;;;;17.52;100.00;99100.33;105217;1271;75536;-79
2022/06/10 06:22:04;;;;;;;32.10;28.80;;;;;;;17.49;100.00;99102.83;105208;1271;70383;-80
2022/06/10 06:24:33;;;;;;;34.20;29.90;;;;;;;17.49;100.00;99103.37;105211;1271;73517;-80
2022/06/10 06:27:00;;;;;;;33.60;30.10;;;;;;;17.48;100.00;99107.05;105217;1271;60568;-80
2022/06/10 06:29:27;;;;;;;35.90;29.80;;;;;;;17.49;100.00;99104.77;105180;1270;62036;-79
2022/06/10 06:31:53;;;;;;;34.00;30.30;;;;;;;17.50;100.00;99104.45;105194;1271;74494;-79
2022/06/10 06:34:21;;;;;;;33.90;30.00;;;;;;;17.52;100.00;99106.96;105212;1271;69261;-81
2022/06/10 06:36:50;;;;;;;33.00;29.60;;;;;;;17.55;100.00;99108.14;105097;1271;74604;-81
2022/06/10 06:39:19;;;;;;;37.60;30.80;;;;;;;17.58;100.00;99110.73;105221;1271;60513;-79
2022/06/10 06:41:46;;;;;;;34.50;29.30;;;;;;;17.52;100.00;99113.65;105005;1271;62534;-79
2022/06/10 06:44:14;;;;;;;36.70;30.40;;;;;;;17.52;100.00;99115.44;105183;1271;75365;-79
2022/06/10 06:46:42;;;;;;;39.70;31.50;;;;;;;17.58;100.00;99115.09;105235;1271;69195;-79
2022/06/10 06:49:16;;;;;;;36.20;29.90;;;;;;;17.62;100.00;99119.73;105195;1271;70639;-79
2022/06/10 06:51:43;;;;;;;39.60;30.30;;;;;;;17.66;100.00;99120.61;105130;1270;60605;-79
2022/06/10 06:54:10;;;;;;;34.60;29.40;;;;;;;17.78;100.00;99123.29;105168;1271;61843;-78
2022/06/10 06:56:37;;;;;;;34.60;29.80;;;;;;;17.82;100.00;99126.70;105217;1270;74693;-79
2022/06/10 06:59:06;;;;;;;38.80;32.60;;;;;;;17.79;100.00;99133.41;105202;1271;69267;-79
2022/06/10 07:01:34;;;;;;;37.40;31.30;;;;;;;17.77;100.00;99133.73;105286;1270;73163;-80
2022/06/10 07:04:02;;;;;;;38.40;31.00;;;;;;;17.78;100.00;99136.72;105226;1271;61433;-80
2022/06/10 07:06:28;;;;;;;38.10;31.60;;;;;;;17.84;100.00;99134.77;105198;1271;62150;-79
2022/06/10 07:08:55;;;;;;;39.10;31.50;;;;;;;17.82;100.00;99140.48;105220;1271;60433;-79
2022/06/10 07:11:21;;;;;;;36.40;30.50;;;;;;;17.80;100.00;99141.21;105200;1271;60530;-80
2022/06/10 07:13:48;;;;;;;33.70;30.10;;;;;;;17.76;100.00;99147.46;105104;1271;72397;-80
2022/06/10 07:16:15;;;;;;;35.10;29.90;;;;;;;17.73;100.00;99149.77;105219;1271;60584;-81
2022/06/10 07:18:41;;;;;;;35.60;30.70;;;;;;;17.68;100.00;99151.27;105202;1271;60839;-81
2022/06/10 07:21:08;;;;;;;38.20;29.90;;;;;;;17.66;100.00;99151.67;105153;1271;75855;-77
2022/06/10 07:23:35;;;;;;;38.70;30.80;;;;;;;17.68;100.00;99152.40;105144;1271;70249;-80
2022/06/10 07:26:03;;;;;;;43.20;32.30;;;;;;;17.69;100.00;99155.02;105151;1271;74477;-80
2022/06/10 07:28:31;;;;;;;40.80;32.50;;;;;;;17.67;100.00;99156.48;105172;1270;60612;-76
2022/06/10 07:30:58;;;;;;;46.10;33.80;;;;;;;17.61;100.00;99159.35;105165;1271;60555;-76
2022/06/10 07:33:25;;;;;;;42.40;34.10;;;;;;;17.60;100.00;99159.63;104933;1271;74296;-76
2022/06/10 07:35:52;;;;;;;37.20;32.30;;;;;;;17.65;100.00;99159.14;105222;1271;70313;-76
2022/06/10 07:38:19;;;;;;;36.30;32.40;;;;;;;17.68;100.00;99161.94;105117;1271;74386;-75
2022/06/10 07:43:33;;;;;;;36.60;32.60;;;;;;;17.72;100.00;99160.48;105160;1271;61790;-76
2022/06/10 07:46:03;;;;;;;38.20;34.30;;;;;;;17.73;100.00;99160.75;105173;1271;72603;-76
2022/06/10 07:48:30;;;;;;;37.00;32.50;;;;;;;17.74;100.00;99165.88;105146;1271;69138;-76
2022/06/10 07:50:57;;;;;;;36.60;32.10;;;;;;;17.75;100.00;99162.84;105106;1271;74553;-77
2022/06/10 07:53:23;;;;;;;37.50;33.00;;;;;;;17.72;100.00;99162.48;105161;1271;60584;-76
2022/06/10 07:55:50;;;;;;;34.30;30.60;;;;;;;17.72;100.00;99160.13;105147;1271;60476;-76
2022/06/10 07:58:19;;;;;;;33.90;30.40;;;;;;;17.73;100.00;99163.18;104926;1271;74214;-76
2022/06/10 08:00:46;;;;;;;34.30;30.70;;;;;;;17.74;100.00;99162.98;105149;1271;70351;-76
2022/06/10 08:03:13;;;;;;;32.00;28.80;;;;;;;17.78;100.00;99161.90;105201;1271;73064;-76
2022/06/10 08:05:40;;;;;;;32.70;27.60;;;;;;;17.83;100.00;99164.38;105123;1271;60516;-76
2022/06/10 08:08:08;;;;;;;27.80;25.00;;;;;;;17.83;100.00;99167.58;105177;1271;60737;-76
2022/06/10 08:10:36;;;;;;;29.40;26.30;;;;;;;17.84;100.00;99168.23;105180;1271;74499;-76
2022/06/10 08:13:05;;;;;;;30.10;27.10;;;;;;;17.85;100.00;99170.92;105241;1270;69362;-76
2022/06/10 08:15:33;;;;;;;25.60;22.90;;;;;;;17.91;100.00;99177.27;104977;1271;72127;-76
2022/06/10 08:18:00;;;;;;;26.60;23.70;;;;;;;17.94;100.00;99178.39;105144;1271;60493;-77
2022/06/10 08:23:16;;;;;;;25.80;23.10;;;;;;;18.05;100.00;99180.64;105205;1271;73583;-76
2022/06/10 08:25:44;;;;;;;26.60;23.80;;;;;;;18.09;100.00;99177.17;105169;1271;67911;-77
2022/06/10 08:28:11;;;;;;;27.10;24.50;;;;;;;18.10;100.00;99176.51;105137;1271;74181;-76
2022/06/10 08:30:38;;;;;;;26.40;23.80;;;;;;;18.12;100.00;99183.11;105132;1271;60516;-77
2022/06/10 08:33:05;;;;;;;25.30;22.80;;;;;;;18.23;100.00;99183.03;105193;1269;60934;-77
2022/06/10 08:35:33;;;;;;;27.10;23.20;;;;;;;18.26;100.00;99184.66;105176;1271;74417;-77
2022/06/10 08:38:02;;;;;;;25.60;22.80;;;;;;;18.28;100.00;99190.26;105183;1271;68601;-77
2022/06/10 08:40:31;;;;;;;23.90;21.50;;;;;;;18.32;100.00;99191.15;105179;1270;73176;-76
2022/06/10 08:43:08;;;;;;;24.80;22.30;;;;;;;18.41;100.00;99197.02;105161;1271;60596;-76
2022/06/10 08:46:11;;;;;;;24.40;22.00;;;;;;;18.52;100.00;99196.05;105193;1271;61906;-76
2022/06/10 08:48:59;;;;;;;24.30;21.80;;;;;;;18.56;100.00;99201.93;104990;1271;74360;-76
2022/06/10 08:51:52;;;;;;;23.70;21.30;;;;;;;18.59;100.00;99199.08;105145;1271;69208;-77
2022/06/10 08:54:39;;;;;;;24.20;22.00;;;;;;;18.57;100.00;99202.94;105127;1271;73343;-77
2022/06/10 08:57:23;;;;;;;24.00;21.60;;;;;;;18.52;100.00;99201.11;105184;1270;60548;-77
2022/06/10 08:59:51;;;;;;;25.00;22.70;;;;;;;18.52;100.00;99203.45;105207;1271;60626;-77
2022/06/10 09:02:41;;;;;;;26.70;24.10;;;;;;;18.51;100.00;99205.86;104975;1271;75148;-75
2022/06/10 09:05:17;;;;;;;25.50;23.10;;;;;;;18.49;100.00;99211.59;105154;1271;68829;-77
2022/06/10 09:07:46;;;;;;;27.10;24.30;;;;;;;18.47;100.00;99219.36;105163;1271;73834;-76
2022/06/10 09:10:25;;;;;;;27.30;24.80;;;;;;;18.51;100.00;99217.21;105133;1271;60877;-76
2022/06/10 09:13:26;;;;;;;26.00;23.60;;;;;;;18.53;100.00;99225.78;105146;1271;61701;-76
2022/06/10 09:16:18;;;;;;;28.30;25.50;;;;;;;18.56;100.00;99226.63;104506;1277;74564;-76
2022/06/10 09:18:59;;;;;;;29.20;26.30;;;;;;;18.52;100.00;99226.42;104478;1278;68830;-77
2022/06/10 09:21:26;;;;;;;31.00;28.10;;;;;;;18.49;100.00;99229.83;104477;1280;74561;-77
2022/06/10 09:23:57;;;;;;;30.40;27.50;;;;;;;18.41;100.00;99228.73;104502;1278;60612;-76
2022/06/10 09:26:43;;;;;;;30.90;27.90;;;;;;;18.38;100.00;99238.23;104476;1280;60710;-76
2022/06/10 09:29:12;;;;;;;32.80;29.60;;;;;;;18.35;100.00;99236.70;104418;1280;74347;-77
2022/06/10 09:31:43;;;;;;;29.40;26.60;;;;;;;18.37;100.00;99239.76;104543;1278;70050;-76
2022/06/10 09:34:41;;;;;;;32.20;29.20;;;;;;;18.45;100.00;99241.55;104571;1278;73446;-76
2022/06/10 09:37:17;;;;;;;33.10;29.80;;;;;;;18.49;100.00;99242.91;104455;1279;61344;-76
2022/06/10 09:42:48;;;;;;;34.40;30.70;;;;;;;18.68;100.00;99246.90;104386;1280;72535;-76
2022/06/10 09:45:24;;;;;;;33.10;29.80;;;;;;;18.84;100.00;99246.25;104626;1278;68609;-77
2022/06/10 09:48:18;;;;;;;32.00;28.70;;;;;;;19.00;100.00;99244.16;104465;1278;70306;-76
2022/06/10 09:51:22;;;;;;;29.80;27.00;;;;;;;18.99;100.00;99243.38;104454;1278;60633;-77
2022/06/10 09:54:21;;;;;;;30.10;27.10;;;;;;;19.02;100.00;99248.59;104876;1271;61021;-77
2022/06/10 09:57:05;;;;;;;29.00;26.30;;;;;;;19.11;100.00;99246.33;105096;1271;72549;-80
2022/06/10 09:59:58;;;;;;;28.90;26.30;;;;;;;19.26;100.00;99245.69;105262;1270;68852;-81
2022/06/10 10:02:40;;;;;;;29.30;26.50;;;;;;;19.45;100.00;99246.87;105191;1271;71704;-80
2022/06/10 10:05:30;;;;;;;28.20;25.70;;;;;;;19.68;100.00;99245.30;105221;1271;60517;-80
2022/06/10 10:08:20;;;;;;;28.80;26.30;;;;;;;19.75;100.00;99250.00;105172;1270;62336;-79
2022/06/10 10:10:53;;;;;;;28.40;25.40;;;;;;;19.94;100.00;99254.08;105075;1271;74458;-78
2022/06/10 10:13:38;;;;;;;25.30;23.00;;;;;;;20.28;100.00;99253.67;105200;1271;70805;-80
2022/06/10 10:16:30;;;;;;;26.80;24.50;;;;;;;20.71;100.00;99254.61;105200;1271;73445;-79
2022/06/10 10:19:20;;;;;;;26.40;24.00;;;;;;;20.79;100.00;99254.65;105216;1271;60601;-79
2022/06/10 10:21:55;;;;;;;24.30;22.20;;;;;;;20.73;100.00;99256.62;105106;1271;60788;-78
2022/06/10 10:24:25;;;;;;;25.60;23.30;;;;;;;20.57;100.00;99264.36;105168;1271;74615;-80
2022/06/10 10:26:52;;;;;;;25.00;22.60;;;;;;;20.44;100.00;99261.96;105267;1271;69407;-80
2022/06/10 10:29:23;;;;;;;23.40;21.30;;;;;;;20.33;100.00;99261.42;105160;1271;74268;-80
2022/06/10 10:32:18;;;;;;;24.30;22.00;;;;;;;20.21;100.00;99262.55;105187;1271;61087;-81
2022/06/10 10:34:50;;;;;;;25.80;23.50;;;;;;;20.14;100.00;99261.21;105460;1270;60802;-80
2022/06/10 10:37:21;;;;;;;24.70;22.40;;;;;;;20.08;100.00;99263.99;106713;1272;71949;-79
2022/06/10 10:39:51;;;;;;;25.20;23.10;;;;;;;19.97;100.00;99268.08;105135;1271;69011;-79
2022/06/10 10:42:23;;;;;;;;;;;;;;;19.84;100.00;99270.76;104977;1271;73400;-80
2022/06/10 10:45:05;;;;;;;26.60;24.10;;;;;;;19.70;100.00;99272.39;105158;1271;60547;-81
2022/06/10 10:47:34;;;;;;;27.00;24.40;;;;;;;19.61;100.00;99275.73;105336;1271;60443;-82
2022/06/10 10:50:01;;;;;;;26.30;23.80;;;;;;;19.59;100.00;99271.64;104967;1271;74425;-80
2022/06/10 10:52:37;;;;;;;26.50;24.20;;;;;;;19.67;100.00;99272.49;105098;1271;60832;-80
2022/06/10 10:55:33;;;;;;;27.50;25.30;;;;;;;19.76;100.00;99275.77;105237;1271;71992;-80
2022/06/10 10:58:20;;;;;;;26.40;24.00;;;;;;;19.85;100.00;99273.88;105238;1271;60667;-80
2022/06/10 11:01:05;;;;;;;28.60;25.70;;;;;;;20.04;100.00;99275.64;105195;1271;61874;-79
2022/06/10 11:03:45;;;;;;;25.90;23.50;;;;;;;20.12;100.00;99275.33;105188;1271;75446;-80
2022/06/10 11:06:32;;;;;;;27.20;24.70;;;;;;;20.13;100.00;99275.58;104911;1271;68748;-80
2022/06/10 11:09:04;;;;;;;27.60;25.10;;;;;;;20.13;100.00;99279.68;105223;1271;72065;-80
2022/06/10 11:11:35;;;;;;;27.50;25.00;;;;;;;20.10;100.00;99278.16;105268;1271;60571;-80
2022/06/10 11:14:16;;;;;;;27.70;25.30;;;;;;;20.19;100.00;99277.46;105297;1271;60401;-80
2022/06/10 11:16:53;;;;;;;24.90;22.60;;;;;;;20.31;100.00;99279.10;105257;1271;74654;-81
2022/06/10 11:19:26;;;;;;;24.80;22.60;;;;;;;20.46;100.00;99276.73;105196;1271;68675;-79
2022/06/10 11:22:01;;;;;;;23.30;21.20;;;;;;;20.67;100.00;99273.44;105281;1271;73167;-82
2022/06/10 11:24:31;;;;;;;22.10;20.00;;;;;;;20.93;100.00;99274.48;105202;1271;60494;-80
2022/06/10 11:26:58;;;;;;;;;;;;;;;21.16;100.00;99276.73;105471;1271;61901;-78
2022/06/10 11:29:27;;;;;;;22.40;20.40;;;;;;;21.28;100.00;99280.05;105439;1271;73904;-79
2022/06/10 11:32:00;;;;;;;21.40;19.70;;;;;;;21.31;100.00;99273.59;105424;1271;70247;-80
2022/06/10 11:34:35;;;;;;;24.30;22.20;;;;;;;21.13;100.00;99276.73;105148;1274;74453;-79
2022/06/10 11:37:31;;;;;;;24.50;22.30;;;;;;;20.84;100.00;99276.31;105266;1271;61075;-79
2022/06/10 11:40:10;;;;;;;24.60;22.50;;;;;;;20.60;100.00;99281.64;105253;1271;61836;-80
2022/06/10 11:43:00;;;;;;;25.20;23.10;;;;;;;20.44;100.00;99277.80;105293;1271;74449;-80
2022/06/10 11:45:34;;;;;;;24.80;22.60;;;;;;;20.31;100.00;99274.80;105343;1271;68864;-78